createdAt,value
2023-04-01T00:01:18.034Z,6.88
2023-04-01T00:03:46.766Z,7.07
2023-04-01T00:06:17.814Z,7.00
2023-04-01T00:08:45.946Z,6.60
2023-04-01T00:11:15.125Z,6.28
2023-04-01T00:13:43.389Z,6.43
2023-04-01T00:16:21.062Z,5.20
2023-04-01T00:18:51.717Z,6.28
2023-04-01T00:21:20.484Z,6.25
2023-04-01T00:23:48.502Z,6.03
2023-04-01T00:26:20.150Z,6.70
2023-04-01T00:28:48.560Z,5.72
2023-04-01T00:31:19.348Z,6.32
2023-04-01T00:33:47.886Z,6.30
2023-04-01T00:36:19.223Z,7.22
2023-04-01T00:38:47.985Z,6.60
2023-04-01T00:41:18.204Z,6.40
2023-04-01T00:43:48.994Z,6.25
2023-04-01T00:46:16.811Z,6.00
2023-04-01T00:48:52.357Z,6.07
2023-04-01T00:51:25.195Z,6.70
2023-04-01T00:53:56.963Z,6.45
2023-04-01T00:56:34.092Z,6.80
2023-04-01T00:59:06.023Z,6.50
2023-04-01T01:01:36.129Z,5.78
2023-04-01T01:04:06.889Z,6.57
2023-04-01T01:06:40.821Z,6.05
2023-04-01T01:09:33.111Z,6.63
2023-04-01T01:12:15.217Z,6.30
2023-04-01T01:15:10.988Z,6.40
2023-04-01T01:17:56.935Z,7.13
2023-04-01T01:20:56.856Z,5.75
2023-04-01T01:23:50.723Z,6.45
2023-04-01T01:26:34.807Z,6.30
2023-04-01T01:29:25.484Z,6.57
2023-04-01T01:32:02.341Z,5.70
2023-04-01T01:34:58.130Z,6.80
2023-04-01T01:37:28.754Z,6.32
2023-04-01T01:40:03.211Z,7.40
2023-04-01T01:42:36.155Z,6.28
2023-04-01T01:45:07.707Z,7.53
2023-04-01T01:47:37.099Z,6.93
2023-04-01T01:50:07.515Z,6.30
2023-04-01T01:52:35.529Z,6.07
2023-04-01T01:55:24.694Z,6.43
2023-04-01T01:57:52.739Z,6.38
2023-04-01T02:00:22.312Z,6.85
2023-04-01T02:02:52.007Z,6.00
2023-04-01T02:05:24.466Z,5.93
2023-04-01T02:08:02.898Z,6.70
2023-04-01T02:10:35.624Z,6.45
2023-04-01T02:13:12.760Z,6.03
2023-04-01T02:15:47.092Z,6.97
2023-04-01T02:18:17.520Z,6.85
2023-04-01T02:20:46.065Z,7.18
2023-04-01T02:23:15.135Z,6.45
2023-04-01T02:25:44.979Z,7.57
2023-04-01T02:28:17.787Z,7.07
2023-04-01T02:30:48.179Z,7.03
2023-04-01T02:33:16.677Z,6.13
2023-04-01T02:35:44.769Z,6.20
2023-04-01T02:38:12.767Z,6.55
2023-04-01T02:40:50.548Z,6.60
2023-04-01T02:43:20.388Z,6.40
2023-04-01T02:45:48.313Z,6.47
2023-04-01T02:48:16.042Z,6.70
2023-04-01T02:50:44.757Z,6.45
2023-04-01T02:53:13.165Z,6.40
2023-04-01T02:55:41.190Z,6.38
2023-04-01T02:58:09.059Z,6.43
2023-04-01T03:00:38.152Z,6.65
2023-04-01T03:03:06.160Z,6.88
2023-04-01T03:05:34.325Z,7.28
2023-04-01T03:08:03.516Z,6.72
2023-04-01T03:10:33.268Z,6.38
2023-04-01T03:13:02.160Z,6.75
2023-04-01T03:15:30.330Z,7.05
2023-04-01T03:17:59.438Z,6.78
2023-04-01T03:20:27.629Z,6.68
2023-04-01T03:22:56.873Z,6.95
2023-04-01T03:25:24.931Z,6.95
2023-04-01T03:27:52.884Z,6.57
2023-04-01T03:30:21.235Z,7.18
2023-04-01T03:32:51.874Z,7.65
2023-04-01T03:35:19.873Z,6.80
2023-04-01T03:37:47.868Z,6.70
2023-04-01T03:40:17.639Z,7.35
2023-04-01T03:42:45.810Z,7.25
2023-04-01T03:45:15.747Z,6.90
2023-04-01T03:47:44.799Z,7.22
2023-04-01T03:50:12.861Z,7.90
2023-04-01T03:52:40.809Z,7.20
2023-04-01T03:55:08.950Z,6.40
2023-04-01T03:57:38.078Z,7.18
2023-04-01T04:00:16.674Z,6.85
2023-04-01T04:02:46.737Z,6.95
2023-04-01T04:05:20.138Z,6.53
2023-04-01T04:07:48.624Z,7.10
2023-04-01T04:10:16.351Z,6.75
2023-04-01T04:12:44.438Z,6.75
2023-04-01T04:15:12.871Z,8.05
2023-04-01T04:17:55.195Z,7.50
2023-04-01T04:20:24.627Z,7.35
2023-04-01T04:22:52.320Z,7.07
2023-04-01T04:25:21.654Z,6.78
2023-04-01T04:27:50.635Z,8.18
2023-04-01T04:30:19.938Z,6.57
2023-04-01T04:32:48.736Z,6.57
2023-04-01T04:35:16.675Z,6.85
2023-04-01T04:37:45.452Z,6.72
2023-04-01T04:40:13.585Z,7.38
2023-04-01T04:42:42.745Z,7.35
2023-04-01T04:45:13.964Z,6.72
2023-04-01T04:47:48.228Z,7.80
2023-04-01T04:50:16.337Z,7.25
2023-04-01T04:52:44.271Z,7.20
2023-04-01T04:55:12.280Z,6.93
2023-04-01T04:57:41.335Z,7.15
2023-04-01T05:00:11.228Z,7.03
2023-04-01T05:02:54.150Z,6.50
2023-04-01T05:05:22.133Z,7.45
2023-04-01T05:07:49.816Z,6.75
2023-04-01T05:10:20.530Z,7.13
2023-04-01T05:12:48.212Z,7.43
2023-04-01T05:15:19.690Z,7.32
2023-04-01T05:17:47.716Z,7.03
2023-04-01T05:20:17.024Z,6.82
2023-04-01T05:22:45.505Z,6.75
2023-04-01T05:25:13.557Z,7.10
2023-04-01T05:27:41.600Z,7.03
2023-04-01T05:30:09.822Z,6.72
2023-04-01T05:32:47.606Z,7.57
2023-04-01T05:35:18.494Z,6.70
2023-04-01T05:37:47.557Z,6.80
2023-04-01T05:40:15.755Z,7.22
2023-04-01T05:42:43.832Z,7.20
2023-04-01T05:45:12.568Z,7.28
2023-04-01T05:48:03.731Z,7.97
2023-04-01T05:50:37.796Z,7.82
2023-04-01T05:53:07.219Z,7.63
2023-04-01T05:55:37.243Z,8.18
2023-04-01T05:58:07.056Z,7.82
2023-04-01T06:00:36.593Z,8.68
2023-04-01T06:03:05.009Z,9.73
2023-04-01T06:05:44.396Z,10.07
2023-04-01T06:08:19.050Z,10.70
2023-04-01T06:11:14.757Z,9.52
2023-04-01T06:14:00.496Z,7.82
2023-04-01T06:17:10.306Z,9.63
2023-04-01T06:20:02.839Z,9.30
2023-04-01T06:23:01.960Z,6.93
2023-04-01T06:25:39.633Z,5.82
2023-04-01T06:28:31.749Z,5.75
2023-04-01T06:31:24.073Z,5.25
2023-04-01T06:34:23.677Z,5.60
2023-04-01T06:37:06.793Z,4.80
2023-04-01T06:39:34.523Z,5.15
2023-04-01T06:42:02.411Z,5.15
2023-04-01T06:44:41.472Z,5.18
2023-04-01T06:47:45.461Z,5.00
2023-04-01T06:51:15.659Z,5.15
2023-04-01T06:54:12.105Z,4.95
2023-04-01T06:57:07.851Z,5.05
2023-04-01T07:02:27.510Z,4.63
2023-04-01T07:04:59.170Z,4.53
2023-04-01T07:07:49.554Z,5.05
2023-04-01T07:11:04.348Z,5.78
2023-04-01T07:13:56.354Z,6.53
2023-04-01T07:16:35.947Z,6.68
2023-04-01T07:19:03.731Z,6.00
2023-04-01T07:21:50.739Z,5.63
2023-04-01T07:24:31.355Z,5.20
2023-04-01T07:27:13.569Z,5.28
2023-04-01T07:29:43.458Z,5.68
2023-04-01T07:32:44.950Z,5.55
2023-04-01T07:35:29.052Z,6.75
2023-04-01T07:38:06.203Z,8.52
2023-04-01T07:40:59.161Z,9.30
2023-04-01T07:43:50.832Z,8.32
2023-04-01T07:47:00.998Z,9.63
2023-04-01T07:49:46.957Z,8.18
2023-04-01T07:52:27.264Z,7.50
2023-04-01T07:55:16.696Z,7.40
2023-04-01T07:58:09.537Z,6.35
2023-04-01T08:00:55.960Z,5.95
2023-04-01T08:03:58.986Z,5.50
2023-04-01T08:06:36.266Z,5.32
2023-04-01T08:09:11.241Z,5.85
2023-04-01T08:12:14.906Z,7.30
2023-04-01T08:15:29.102Z,8.27
2023-04-01T08:18:41.915Z,8.88
2023-04-01T08:21:52.222Z,7.80
2023-04-01T08:24:46.469Z,7.13
2023-04-01T08:27:36.362Z,7.35
2023-04-01T08:30:09.379Z,7.38
2023-04-01T08:32:44.930Z,8.73
2023-04-01T08:35:33.814Z,8.48
2023-04-01T08:38:18.270Z,7.55
2023-04-01T08:41:16.471Z,8.75
2023-04-01T08:44:35.673Z,11.82
2023-04-01T08:47:21.620Z,11.52
2023-04-01T08:50:08.665Z,9.90
2023-04-01T08:53:12.876Z,8.27
2023-04-01T08:55:48.805Z,8.05
2023-04-01T08:58:56.046Z,7.00
2023-04-01T09:01:48.578Z,5.90
2023-04-01T09:05:00.052Z,5.70
2023-04-01T09:10:34.693Z,6.90
2023-04-01T09:13:58.577Z,6.70
2023-04-01T09:16:45.352Z,4.90
2023-04-01T09:19:37.497Z,5.50
2023-04-01T09:22:28.696Z,4.82
2023-04-01T09:25:24.558Z,4.55
2023-04-01T09:28:18.876Z,5.65
2023-04-01T09:30:49.761Z,5.70
2023-04-01T09:33:35.992Z,6.28
2023-04-01T09:36:22.817Z,5.53
2023-04-01T09:38:59.202Z,7.05
2023-04-01T09:41:33.589Z,5.95
2023-04-01T09:44:24.430Z,5.85
2023-04-01T09:47:44.168Z,5.90
2023-04-01T09:50:34.640Z,5.88
2023-04-01T09:53:44.526Z,5.60
2023-04-01T09:56:35.915Z,5.90
2023-04-01T09:59:29.843Z,5.00
2023-04-01T10:02:45.930Z,4.00
2023-04-01T10:05:48.097Z,4.68
2023-04-01T10:08:40.971Z,4.10
2023-04-01T10:11:45.450Z,4.60
2023-04-01T10:14:41.202Z,4.15
2023-04-01T10:17:27.933Z,4.15
2023-04-01T10:20:03.637Z,8.20
2023-04-01T10:23:11.840Z,10.23
2023-04-01T10:26:11.045Z,9.00
2023-04-01T10:28:57.364Z,8.18
2023-04-01T10:32:19.358Z,7.28
2023-04-01T10:35:06.728Z,6.78
2023-04-01T10:37:56.227Z,7.20
2023-04-01T10:41:20.716Z,6.32
2023-04-01T10:44:53.077Z,10.38
2023-04-01T10:47:49.909Z,9.40
2023-04-01T10:50:33.377Z,8.20
2023-04-01T10:53:26.974Z,7.50
2023-04-01T10:56:58.727Z,7.75
2023-04-01T11:00:09.480Z,6.72
2023-04-01T11:03:01.900Z,6.70
2023-04-01T11:06:27.524Z,6.63
2023-04-01T11:09:17.682Z,6.45
2023-04-01T11:12:03.753Z,6.82
2023-04-01T11:15:01.867Z,6.13
2023-04-01T11:17:56.460Z,6.80
2023-04-01T11:20:53.916Z,10.52
2023-04-01T11:23:33.980Z,13.17
2023-04-01T11:26:27.534Z,19.60
2023-04-01T11:29:26.975Z,25.73
2023-04-01T11:32:15.542Z,26.73
2023-04-01T11:35:02.258Z,33.10
2023-04-01T11:37:34.228Z,36.40
2023-04-01T11:40:43.746Z,30.15
2023-04-01T11:44:00.529Z,30.75
2023-04-01T11:47:15.728Z,34.97
2023-04-01T11:49:51.574Z,42.13
2023-04-01T11:52:46.573Z,34.47
2023-04-01T11:55:42.060Z,26.17
2023-04-01T11:58:50.650Z,23.20
2023-04-01T12:01:25.525Z,19.42
2023-04-01T12:04:28.184Z,15.07
2023-04-01T12:07:14.587Z,12.68
2023-04-01T12:09:45.466Z,9.75
2023-04-01T12:12:54.220Z,9.32
2023-04-01T12:15:32.581Z,8.82
2023-04-01T12:18:19.195Z,8.02
2023-04-01T12:21:05.416Z,7.53
2023-04-01T12:23:40.427Z,5.93
2023-04-01T12:26:44.836Z,5.22
2023-04-01T12:29:31.372Z,5.32
2023-04-01T12:32:44.020Z,4.57
2023-04-01T12:35:26.258Z,4.70
2023-04-01T12:38:07.815Z,4.07
2023-04-01T12:40:42.811Z,4.10
2023-04-01T12:43:33.993Z,5.63
2023-04-01T12:46:27.612Z,5.57
2023-04-01T12:49:16.862Z,4.50
2023-04-01T12:52:04.965Z,4.85
2023-04-01T12:54:51.008Z,5.03
2023-04-01T12:57:21.870Z,4.55
2023-04-01T12:59:53.567Z,4.85
2023-04-01T13:02:33.078Z,5.20
2023-04-01T13:05:22.741Z,7.72
2023-04-01T13:08:25.709Z,9.27
2023-04-01T13:11:27.191Z,8.10
2023-04-01T13:14:30.788Z,7.70
2023-04-01T13:17:20.166Z,5.53
2023-04-01T13:20:05.710Z,6.00
2023-04-01T13:22:47.537Z,8.40
2023-04-01T13:25:29.105Z,6.88
2023-04-01T13:28:13.924Z,7.47
2023-04-01T13:30:56.431Z,12.13
2023-04-01T13:33:33.632Z,13.57
2023-04-01T13:36:29.406Z,11.35
2023-04-01T13:39:26.504Z,10.55
2023-04-01T13:42:29.617Z,6.82
2023-04-01T13:45:22.541Z,4.75
2023-04-01T13:48:28.042Z,3.88
2023-04-01T13:51:07.753Z,3.65
2023-04-01T13:53:50.031Z,3.13
2023-04-01T13:56:49.477Z,3.03
2023-04-01T13:59:38.616Z,3.60
2023-04-01T14:02:40.664Z,3.80
2023-04-01T14:05:43.049Z,4.40
2023-04-01T14:08:52.974Z,3.58
2023-04-01T14:11:53.788Z,2.58
2023-04-01T14:14:43.510Z,3.33
2023-04-01T14:17:39.498Z,4.68
2023-04-01T14:20:29.168Z,5.53
2023-04-01T14:23:26.685Z,6.43
2023-04-01T14:26:00.710Z,5.97
2023-04-01T14:28:51.204Z,6.07
2023-04-01T14:31:29.977Z,6.38
2023-04-01T14:34:26.096Z,5.50
2023-04-01T14:36:56.781Z,4.10
2023-04-01T14:39:46.823Z,3.30
2023-04-01T14:42:30.020Z,2.55
2023-04-01T14:45:22.948Z,4.30
2023-04-01T14:48:44.528Z,6.13
2023-04-01T14:51:22.040Z,6.85
2023-04-01T14:54:13.474Z,6.07
2023-04-01T14:56:44.377Z,4.75
2023-04-01T14:59:26.464Z,4.82
2023-04-01T15:02:15.597Z,4.43
2023-04-01T15:05:06.909Z,4.50
2023-04-01T15:08:01.318Z,9.73
2023-04-01T15:10:46.185Z,13.30
2023-04-01T15:13:15.684Z,11.68
2023-04-01T15:16:08.175Z,8.68
2023-04-01T15:18:54.830Z,5.80
2023-04-01T15:21:45.825Z,5.43
2023-04-01T15:24:37.486Z,5.53
2023-04-01T15:27:22.838Z,4.45
2023-04-01T15:30:21.081Z,4.32
2023-04-01T15:35:51.652Z,4.63
2023-04-01T15:38:29.415Z,4.10
2023-04-01T15:41:18.705Z,4.43
2023-04-01T15:43:55.630Z,4.55
2023-04-01T15:46:42.027Z,4.40
2023-04-01T15:49:44.880Z,4.90
2023-04-01T15:52:24.541Z,5.93
2023-04-01T15:55:26.318Z,8.32
2023-04-01T15:58:32.759Z,15.50
2023-04-01T16:01:36.500Z,15.73
2023-04-01T16:04:22.745Z,16.50
2023-04-01T16:07:10.677Z,15.73
2023-04-01T16:10:08.154Z,12.00
2023-04-01T16:13:05.907Z,10.18
2023-04-01T16:15:42.042Z,12.20
2023-04-01T16:18:44.264Z,10.70
2023-04-01T16:21:35.026Z,10.13
2023-04-01T16:24:12.123Z,14.25
2023-04-01T16:26:56.088Z,13.57
2023-04-01T16:29:48.202Z,11.48
2023-04-01T16:32:50.341Z,11.10
2023-04-01T16:35:36.411Z,13.13
2023-04-01T16:38:14.677Z,11.98
2023-04-01T16:41:02.809Z,12.30
2023-04-01T16:43:36.815Z,11.15
2023-04-01T16:46:22.413Z,11.10
2023-04-01T16:49:18.527Z,7.57
2023-04-01T16:51:52.747Z,8.10
2023-04-01T16:54:54.873Z,9.50
2023-04-01T16:57:33.481Z,10.40
2023-04-01T17:00:32.309Z,11.65
2023-04-01T17:03:13.286Z,13.60
2023-04-01T17:06:02.886Z,15.15
2023-04-01T17:08:59.978Z,14.00
2023-04-01T17:11:32.021Z,11.50
2023-04-01T17:14:30.395Z,9.48
2023-04-01T17:17:25.918Z,7.88
2023-04-01T17:20:34.523Z,6.03
2023-04-01T17:23:15.939Z,6.38
2023-04-01T17:26:08.353Z,5.30
2023-04-01T17:28:51.880Z,4.10
2023-04-01T17:31:25.781Z,4.65
2023-04-01T17:34:32.836Z,3.53
2023-04-01T17:37:30.225Z,3.60
2023-04-01T17:40:34.015Z,3.33
2023-04-01T17:43:26.811Z,3.10
2023-04-01T17:45:56.962Z,2.95
2023-04-01T17:48:46.165Z,1.92
2023-04-01T17:51:21.758Z,2.45
2023-04-01T17:53:58.195Z,2.67
2023-04-01T17:56:41.176Z,2.67
2023-04-01T17:59:09.120Z,2.45
2023-04-01T18:01:53.177Z,2.63
2023-04-01T18:04:38.394Z,2.17
2023-04-01T18:07:06.133Z,2.45
2023-04-01T18:10:05.128Z,1.92
2023-04-01T18:13:01.493Z,2.00
2023-04-01T18:16:04.046Z,2.30
2023-04-01T18:19:02.932Z,2.47
2023-04-01T18:21:59.893Z,2.20
2023-04-01T18:24:43.013Z,2.42
2023-04-01T18:27:10.747Z,3.00
2023-04-01T18:29:56.411Z,3.58
2023-04-01T18:32:38.636Z,3.75
2023-04-01T18:35:44.080Z,4.00
2023-04-01T18:38:20.149Z,4.93
2023-04-01T18:41:00.045Z,5.65
2023-04-01T18:43:57.939Z,5.78
2023-04-01T18:47:04.717Z,6.78
2023-04-01T18:49:43.333Z,6.22
2023-04-01T18:52:21.287Z,5.63
2023-04-01T18:55:04.243Z,6.00
2023-04-01T18:57:55.916Z,5.68
2023-04-01T19:01:08.736Z,5.57
2023-04-01T19:04:25.388Z,6.57
2023-04-01T19:06:59.467Z,6.45
2023-04-01T19:09:53.405Z,5.95
2023-04-01T19:12:41.187Z,5.97
2023-04-01T19:15:25.936Z,5.20
2023-04-01T19:18:12.599Z,7.95
2023-04-01T19:20:58.442Z,6.35
2023-04-01T19:23:45.151Z,6.00
2023-04-01T19:26:49.224Z,5.88
2023-04-01T19:29:44.245Z,5.07
2023-04-01T19:32:26.902Z,6.00
2023-04-01T19:35:01.644Z,6.20
2023-04-01T19:37:45.857Z,5.57
2023-04-01T19:40:50.132Z,6.38
2023-04-01T19:43:20.783Z,6.65
2023-04-01T19:46:13.174Z,5.60
2023-04-01T19:48:54.315Z,6.13
2023-04-01T19:51:34.434Z,5.00
2023-04-01T19:54:34.937Z,4.90
2023-04-01T19:57:37.480Z,5.43
2023-04-01T20:00:08.578Z,5.63
2023-04-01T20:03:31.780Z,4.60
2023-04-01T20:06:06.976Z,4.35
2023-04-01T20:08:41.551Z,4.45
2023-04-01T20:11:31.960Z,5.05
2023-04-01T20:14:24.563Z,4.78
2023-04-01T20:17:00.119Z,5.93
2023-04-01T20:19:39.927Z,7.15
2023-04-01T20:22:33.842Z,7.60
2023-04-01T20:25:14.527Z,7.05
2023-04-01T20:27:56.098Z,5.95
2023-04-01T20:30:32.077Z,4.93
2023-04-01T20:33:40.726Z,4.40
2023-04-01T20:36:22.132Z,4.00
2023-04-01T20:39:28.282Z,4.28
2023-04-01T20:42:13.917Z,4.68
2023-04-01T20:45:19.972Z,5.13
2023-04-01T20:48:15.089Z,4.85
2023-04-01T20:50:53.366Z,4.80
2023-04-01T20:53:33.457Z,5.72
2023-04-01T20:56:30.196Z,6.88
2023-04-01T20:59:11.039Z,7.07
2023-04-01T21:01:57.893Z,6.50
2023-04-01T21:04:38.713Z,6.50
2023-04-01T21:07:19.214Z,5.88
2023-04-01T21:09:59.103Z,6.60
2023-04-01T21:12:41.071Z,5.30
2023-04-01T21:15:36.034Z,4.65
2023-04-01T21:18:12.916Z,4.15
2023-04-01T21:21:38.787Z,4.10
2023-04-01T21:24:38.496Z,3.58
2023-04-01T21:27:13.032Z,3.78
2023-04-01T21:30:13.384Z,3.88
2023-04-01T21:33:05.919Z,3.47
2023-04-01T21:35:55.338Z,3.55
2023-04-01T21:38:51.995Z,3.15
2023-04-01T21:41:42.856Z,3.35
2023-04-01T21:44:10.679Z,3.50
2023-04-01T21:47:09.683Z,3.83
2023-04-01T21:49:50.148Z,4.15
2023-04-01T21:52:44.307Z,3.60
2023-04-01T21:55:24.492Z,4.13
2023-04-01T21:58:30.804Z,4.20
2023-04-01T22:01:22.180Z,3.50
2023-04-01T22:04:01.894Z,4.03
2023-04-01T22:06:42.266Z,4.22
2023-04-01T22:09:22.238Z,4.22
2023-04-01T22:12:19.443Z,4.22
2023-04-01T22:14:59.589Z,4.22
2023-04-01T22:17:50.874Z,3.10
2023-04-01T22:20:46.318Z,4.00
2023-04-01T22:23:45.152Z,4.60
2023-04-01T22:26:32.871Z,3.72
2023-04-01T22:29:21.462Z,4.13
2023-04-01T22:32:01.471Z,3.10
2023-04-01T22:34:47.257Z,3.90
2023-04-01T22:37:56.708Z,3.33
2023-04-01T22:40:40.006Z,3.20
2023-04-01T22:43:14.936Z,3.45
2023-04-01T22:46:07.342Z,3.47
2023-04-01T22:49:06.336Z,2.90
2023-04-01T22:52:05.101Z,3.20
2023-04-01T22:54:56.956Z,3.53
2023-04-01T22:57:32.442Z,3.22
2023-04-01T23:00:11.046Z,4.03
2023-04-01T23:02:43.283Z,3.28
2023-04-01T23:05:15.069Z,3.45
2023-04-01T23:07:48.053Z,2.97
2023-04-01T23:10:41.946Z,3.72
2023-04-01T23:13:23.727Z,4.28
2023-04-01T23:15:54.162Z,3.60
2023-04-01T23:18:38.637Z,4.78
2023-04-01T23:21:20.819Z,4.45
2023-04-01T23:24:23.642Z,4.43
2023-04-01T23:27:00.999Z,4.45
2023-04-01T23:29:29.838Z,3.70
2023-04-01T23:32:05.104Z,4.25
2023-04-01T23:34:37.143Z,4.40
2023-04-01T23:37:14.656Z,4.65
2023-04-01T23:39:45.802Z,4.55
2023-04-01T23:42:33.583Z,3.90
2023-04-01T23:45:21.943Z,4.55
2023-04-01T23:47:51.673Z,4.13
2023-04-01T23:50:26.857Z,4.13
2023-04-01T23:53:01.262Z,4.00
2023-04-01T23:55:33.529Z,3.88
2023-04-01T23:58:16.417Z,3.88
